sensor_id;sensor_type;location;lat;lon;timestamp;temperature;humidity
32660;DHT22;19064;47.912;12.308;2022-11-02T00:01:51;10.80;99.90
32660;DHT22;19064;47.912;12.308;2022-11-02T00:04:18;10.80;99.90
32660;DHT22;19064;47.912;12.308;2022-11-02T00:06:47;10.90;99.90
32660;DHT22;19064;47.912;12.308;2022-11-02T00:09:13;11.00;99.90
32660;DHT22;19064;47.912;12.308;2022-11-02T00:11:40;11.00;99.90
32660;DHT22;19064;47.912;12.308;2022-11-02T00:14:07;11.00;99.90
32660;DHT22;19064;47.912;12.308;2022-11-02T00:16:36;10.90;99.90
32660;DHT22;19064;47.912;12.308;2022-11-02T00:19:03;11.00;99.90
32660;DHT22;19064;47.912;12.308;2022-11-02T00:21:30;11.00;99.90
32660;DHT22;19064;47.912;12.308;2022-11-02T00:23:59;11.10;99.90
32660;DHT22;19064;47.912;12.308;2022-11-02T00:26:27;11.10;99.90
32660;DHT22;19064;47.912;12.308;2022-11-02T00:28:54;11.00;99.90
32660;DHT22;19064;47.912;12.308;2022-11-02T00:31:21;11.00;99.90
32660;DHT22;19064;47.912;12.308;2022-11-02T00:33:48;11.00;99.90
32660;DHT22;19064;47.912;12.308;2022-11-02T00:36:14;11.10;99.90
32660;DHT22;19064;47.912;12.308;2022-11-02T00:38:41;11.00;99.90
32660;DHT22;19064;47.912;12.308;2022-11-02T00:41:09;11.00;99.90
32660;DHT22;19064;47.912;12.308;2022-11-02T00:43:37;10.90;99.90
32660;DHT22;19064;47.912;12.308;2022-11-02T00:46:04;10.90;99.90
32660;DHT22;19064;47.912;12.308;2022-11-02T00:48:30;10.90;99.90
32660;DHT22;19064;47.912;12.308;2022-11-02T00:50:57;10.90;99.90
32660;DHT22;19064;47.912;12.308;2022-11-02T00:53:24;10.80;99.90
32660;DHT22;19064;47.912;12.308;2022-11-02T00:55:51;10.80;99.90
32660;DHT22;19064;47.912;12.308;2022-11-02T00:58:19;10.70;99.90
32660;DHT22;19064;47.912;12.308;2022-11-02T01:00:46;10.70;99.90
32660;DHT22;19064;47.912;12.308;2022-11-02T01:03:13;10.60;99.90
32660;DHT22;19064;47.912;12.308;2022-11-02T01:05:39;10.60;99.90
32660;DHT22;19064;47.912;12.308;2022-11-02T01:08:06;10.50;99.90
32660;DHT22;19064;47.912;12.308;2022-11-02T01:10:33;10.40;99.90
32660;DHT22;19064;47.912;12.308;2022-11-02T01:13:00;10.40;99.90
32660;DHT22;19064;47.912;12.308;2022-11-02T01:15:28;10.40;99.90
32660;DHT22;19064;47.912;12.308;2022-11-02T01:17:55;10.40;99.90
32660;DHT22;19064;47.912;12.308;2022-11-02T01:20:22;10.50;99.90
32660;DHT22;19064;47.912;12.308;2022-11-02T01:22:48;10.50;99.90
32660;DHT22;19064;47.912;12.308;2022-11-02T01:25:15;10.40;99.90
32660;DHT22;19064;47.912;12.308;2022-11-02T01:27:42;10.30;99.90
32660;DHT22;19064;47.912;12.308;2022-11-02T01:30:10;10.20;99.90
32660;DHT22;19064;47.912;12.308;2022-11-02T01:32:38;10.10;99.90
32660;DHT22;19064;47.912;12.308;2022-11-02T01:35:05;10.10;99.90
32660;DHT22;19064;47.912;12.308;2022-11-02T01:37:32;10.00;99.90
32660;DHT22;19064;47.912;12.308;2022-11-02T01:39:59;10.10;99.90
32660;DHT22;19064;47.912;12.308;2022-11-02T01:42:28;10.10;99.90
32660;DHT22;19064;47.912;12.308;2022-11-02T01:44:54;10.10;99.90
32660;DHT22;19064;47.912;12.308;2022-11-02T01:47:23;10.20;99.90
32660;DHT22;19064;47.912;12.308;2022-11-02T01:49:56;10.20;99.90
32660;DHT22;19064;47.912;12.308;2022-11-02T01:52:26;10.20;99.90
32660;DHT22;19064;47.912;12.308;2022-11-02T01:54:57;10.20;99.90
32660;DHT22;19064;47.912;12.308;2022-11-02T01:57:27;10.20;99.90
32660;DHT22;19064;47.912;12.308;2022-11-02T01:59:56;10.20;99.90
32660;DHT22;19064;47.912;12.308;2022-11-02T02:02:26;10.20;99.90
32660;DHT22;19064;47.912;12.308;2022-11-02T02:04:58;10.20;99.90
32660;DHT22;19064;47.912;12.308;2022-11-02T02:07:28;10.20;99.90
32660;DHT22;19064;47.912;12.308;2022-11-02T02:09:56;10.30;99.90
32660;DHT22;19064;47.912;12.308;2022-11-02T02:12:23;10.30;99.90
32660;DHT22;19064;47.912;12.308;2022-11-02T02:14:51;10.30;99.90
32660;DHT22;19064;47.912;12.308;2022-11-02T02:17:29;10.30;99.90
32660;DHT22;19064;47.912;12.308;2022-11-02T02:20:02;10.30;99.90
32660;DHT22;19064;47.912;12.308;2022-11-02T02:22:55;10.30;99.90
32660;DHT22;19064;47.912;12.308;2022-11-02T02:26:06;10.30;99.90
32660;DHT22;19064;47.912;12.308;2022-11-02T02:28:41;10.30;99.90
32660;DHT22;19064;47.912;12.308;2022-11-02T02:31:14;10.30;99.90
32660;DHT22;19064;47.912;12.308;2022-11-02T02:33:45;10.40;99.90
32660;DHT22;19064;47.912;12.308;2022-11-02T02:36:19;10.40;99.90
32660;DHT22;19064;47.912;12.308;2022-11-02T02:38:55;10.40;99.90
32660;DHT22;19064;47.912;12.308;2022-11-02T02:41:28;10.50;99.90
32660;DHT22;19064;47.912;12.308;2022-11-02T02:43:58;10.50;99.90
32660;DHT22;19064;47.912;12.308;2022-11-02T02:46:28;10.50;99.90
32660;DHT22;19064;47.912;12.308;2022-11-02T02:49:00;10.60;99.90
32660;DHT22;19064;47.912;12.308;2022-11-02T02:51:29;10.50;99.90
32660;DHT22;19064;47.912;12.308;2022-11-02T02:53:59;10.40;99.90
32660;DHT22;19064;47.912;12.308;2022-11-02T02:56:30;10.40;99.90
32660;DHT22;19064;47.912;12.308;2022-11-02T02:59:01;10.30;99.90
32660;DHT22;19064;47.912;12.308;2022-11-02T03:01:31;10.30;99.90
32660;DHT22;19064;47.912;12.308;2022-11-02T03:03:57;10.30;99.90
32660;DHT22;19064;47.912;12.308;2022-11-02T03:06:27;10.30;99.90
32660;DHT22;19064;47.912;12.308;2022-11-02T03:09:02;10.20;99.90
32660;DHT22;19064;47.912;12.308;2022-11-02T03:11:30;10.20;99.90
32660;DHT22;19064;47.912;12.308;2022-11-02T03:14:12;10.20;99.90
32660;DHT22;19064;47.912;12.308;2022-11-02T03:16:47;10.20;99.90
32660;DHT22;19064;47.912;12.308;2022-11-02T03:19:23;10.20;99.90
32660;DHT22;19064;47.912;12.308;2022-11-02T03:21:57;10.20;99.90
32660;DHT22;19064;47.912;12.308;2022-11-02T03:24:27;10.30;99.90
32660;DHT22;19064;47.912;12.308;2022-11-02T03:27:03;10.40;99.90
32660;DHT22;19064;47.912;12.308;2022-11-02T03:29:38;10.40;99.90
32660;DHT22;19064;47.912;12.308;2022-11-02T03:32:11;10.50;99.90
32660;DHT22;19064;47.912;12.308;2022-11-02T03:34:41;10.60;99.90
32660;DHT22;19064;47.912;12.308;2022-11-02T03:37:13;10.70;99.90
32660;DHT22;19064;47.912;12.308;2022-11-02T03:39:46;10.90;99.90
32660;DHT22;19064;47.912;12.308;2022-11-02T03:42:19;10.90;99.90
32660;DHT22;19064;47.912;12.308;2022-11-02T03:44:51;10.90;99.90
32660;DHT22;19064;47.912;12.308;2022-11-02T03:47:21;10.90;99.90
32660;DHT22;19064;47.912;12.308;2022-11-02T03:49:49;10.80;99.90
32660;DHT22;19064;47.912;12.308;2022-11-02T03:52:21;10.90;99.90
32660;DHT22;19064;47.912;12.308;2022-11-02T03:54:57;11.00;99.90
32660;DHT22;19064;47.912;12.308;2022-11-02T03:57:28;11.00;99.90
32660;DHT22;19064;47.912;12.308;2022-11-02T04:00:07;11.10;99.90
32660;DHT22;19064;47.912;12.308;2022-11-02T04:02:35;11.20;99.90
32660;DHT22;19064;47.912;12.308;2022-11-02T04:05:03;11.30;99.90
32660;DHT22;19064;47.912;12.308;2022-11-02T04:07:32;11.40;99.90
32660;DHT22;19064;47.912;12.308;2022-11-02T04:10:20;11.50;99.90
32660;DHT22;19064;47.912;12.308;2022-11-02T04:12:47;11.50;99.90
32660;DHT22;19064;47.912;12.308;2022-11-02T04:15:32;11.40;99.90
32660;DHT22;19064;47.912;12.308;2022-11-02T04:17:59;11.30;99.90
32660;DHT22;19064;47.912;12.308;2022-11-02T04:20:42;11.30;99.90
32660;DHT22;19064;47.912;12.308;2022-11-02T04:23:09;11.30;99.90
32660;DHT22;19064;47.912;12.308;2022-11-02T04:25:53;11.20;99.90
32660;DHT22;19064;47.912;12.308;2022-11-02T04:28:20;11.20;99.90
32660;DHT22;19064;47.912;12.308;2022-11-02T04:30:48;11.10;99.90
32660;DHT22;19064;47.912;12.308;2022-11-02T04:33:15;11.00;99.90
32660;DHT22;19064;47.912;12.308;2022-11-02T04:36:00;11.00;99.90
32660;DHT22;19064;47.912;12.308;2022-11-02T04:38:28;11.00;99.90
32660;DHT22;19064;47.912;12.308;2022-11-02T04:41:06;11.00;99.90
32660;DHT22;19064;47.912;12.308;2022-11-02T04:43:50;11.00;99.90
32660;DHT22;19064;47.912;12.308;2022-11-02T04:46:18;11.00;99.90
32660;DHT22;19064;47.912;12.308;2022-11-02T04:48:45;11.00;99.90
32660;DHT22;19064;47.912;12.308;2022-11-02T04:51:12;11.00;99.90
32660;DHT22;19064;47.912;12.308;2022-11-02T04:53:38;11.00;99.90
32660;DHT22;19064;47.912;12.308;2022-11-02T04:56:06;11.00;99.90
32660;DHT22;19064;47.912;12.308;2022-11-02T04:58:33;11.00;99.90
32660;DHT22;19064;47.912;12.308;2022-11-02T05:01:04;11.00;99.90
32660;DHT22;19064;47.912;12.308;2022-11-02T05:03:33;11.00;99.90
32660;DHT22;19064;47.912;12.308;2022-11-02T05:06:02;11.00;99.90
32660;DHT22;19064;47.912;12.308;2022-11-02T05:08:30;11.00;99.90
32660;DHT22;19064;47.912;12.308;2022-11-02T05:10:58;11.10;99.90
32660;DHT22;19064;47.912;12.308;2022-11-02T05:13:26;11.10;99.90
32660;DHT22;19064;47.912;12.308;2022-11-02T05:15:54;11.10;99.90
32660;DHT22;19064;47.912;12.308;2022-11-02T05:18:24;11.20;99.90
32660;DHT22;19064;47.912;12.308;2022-11-02T05:20:53;11.10;99.90
32660;DHT22;19064;47.912;12.308;2022-11-02T05:23:21;11.10;99.90
32660;DHT22;19064;47.912;12.308;2022-11-02T05:25:52;11.00;99.90
32660;DHT22;19064;47.912;12.308;2022-11-02T05:28:19;11.00;99.90
32660;DHT22;19064;47.912;12.308;2022-11-02T05:30:46;10.90;99.90
32660;DHT22;19064;47.912;12.308;2022-11-02T05:33:13;11.00;99.90
32660;DHT22;19064;47.912;12.308;2022-11-02T05:35:40;11.00;99.90
32660;DHT22;19064;47.912;12.308;2022-11-02T05:38:08;10.80;99.90
32660;DHT22;19064;47.912;12.308;2022-11-02T05:40:35;10.80;99.90
32660;DHT22;19064;47.912;12.308;2022-11-02T05:43:05;10.80;99.90
32660;DHT22;19064;47.912;12.308;2022-11-02T05:45:32;10.80;99.90
32660;DHT22;19064;47.912;12.308;2022-11-02T05:47:59;10.80;99.90
32660;DHT22;19064;47.912;12.308;2022-11-02T05:50:26;10.80;99.90
32660;DHT22;19064;47.912;12.308;2022-11-02T05:52:53;10.70;99.90
32660;DHT22;19064;47.912;12.308;2022-11-02T05:55:21;10.70;99.90
32660;DHT22;19064;47.912;12.308;2022-11-02T05:57:50;10.70;99.90
32660;DHT22;19064;47.912;12.308;2022-11-02T06:00:17;10.80;99.90
32660;DHT22;19064;47.912;12.308;2022-11-02T06:02:44;10.80;99.90
32660;DHT22;19064;47.912;12.308;2022-11-02T06:05:10;10.70;99.90
32660;DHT22;19064;47.912;12.308;2022-11-02T06:07:37;10.70;99.90
32660;DHT22;19064;47.912;12.308;2022-11-02T06:10:05;10.70;99.90
32660;DHT22;19064;47.912;12.308;2022-11-02T06:12:33;10.70;99.90
32660;DHT22;19064;47.912;12.308;2022-11-02T06:15:00;10.80;99.90
32660;DHT22;19064;47.912;12.308;2022-11-02T06:17:27;10.80;99.90
32660;DHT22;19064;47.912;12.308;2022-11-02T06:19:53;10.70;99.90
32660;DHT22;19064;47.912;12.308;2022-11-02T06:22:20;10.70;99.90
32660;DHT22;19064;47.912;12.308;2022-11-02T06:24:47;10.70;99.90
32660;DHT22;19064;47.912;12.308;2022-11-02T06:27:13;10.60;99.90
32660;DHT22;19064;47.912;12.308;2022-11-02T06:29:41;10.60;99.90
32660;DHT22;19064;47.912;12.308;2022-11-02T06:32:08;10.70;99.90
32660;DHT22;19064;47.912;12.308;2022-11-02T06:34:35;10.70;99.90
32660;DHT22;19064;47.912;12.308;2022-11-02T06:37:01;10.70;99.90
32660;DHT22;19064;47.912;12.308;2022-11-02T06:39:28;10.60;99.90
32660;DHT22;19064;47.912;12.308;2022-11-02T06:41:55;10.70;99.90
32660;DHT22;19064;47.912;12.308;2022-11-02T06:44:21;10.80;99.90
32660;DHT22;19064;47.912;12.308;2022-11-02T06:46:49;10.80;99.90
32660;DHT22;19064;47.912;12.308;2022-11-02T06:49:16;10.80;99.90
32660;DHT22;19064;47.912;12.308;2022-11-02T06:51:43;10.80;99.90
32660;DHT22;19064;47.912;12.308;2022-11-02T06:54:10;10.80;99.90
32660;DHT22;19064;47.912;12.308;2022-11-02T06:56:36;10.90;99.90
32660;DHT22;19064;47.912;12.308;2022-11-02T06:59:03;10.90;99.90
32660;DHT22;19064;47.912;12.308;2022-11-02T07:01:30;10.90;99.90
32660;DHT22;19064;47.912;12.308;2022-11-02T07:03:58;10.90;99.90
32660;DHT22;19064;47.912;12.308;2022-11-02T07:06:24;10.90;99.90
32660;DHT22;19064;47.912;12.308;2022-11-02T07:08:51;10.90;99.90
32660;DHT22;19064;47.912;12.308;2022-11-02T07:11:18;11.00;99.90
32660;DHT22;19064;47.912;12.308;2022-11-02T07:13:45;11.00;99.90
32660;DHT22;19064;47.912;12.308;2022-11-02T07:16:11;11.10;99.90
32660;DHT22;19064;47.912;12.308;2022-11-02T07:18:39;11.10;99.90
32660;DHT22;19064;47.912;12.308;2022-11-02T07:21:07;11.20;99.90
32660;DHT22;19064;47.912;12.308;2022-11-02T07:23:35;11.20;99.90
32660;DHT22;19064;47.912;12.308;2022-11-02T07:26:02;11.30;99.90
32660;DHT22;19064;47.912;12.308;2022-11-02T07:28:29;11.40;99.90
32660;DHT22;19064;47.912;12.308;2022-11-02T07:30:56;11.50;99.90
32660;DHT22;19064;47.912;12.308;2022-11-02T07:33:23;11.90;99.90
32660;DHT22;19064;47.912;12.308;2022-11-02T07:35:49;12.50;99.90
32660;DHT22;19064;47.912;12.308;2022-11-02T07:38:18;12.90;99.90
32660;DHT22;19064;47.912;12.308;2022-11-02T07:40:47;13.00;99.90
32660;DHT22;19064;47.912;12.308;2022-11-02T07:43:14;13.30;99.90
32660;DHT22;19064;47.912;12.308;2022-11-02T07:45:41;13.80;99.90
32660;DHT22;19064;47.912;12.308;2022-11-02T07:48:07;14.00;99.90
32660;DHT22;19064;47.912;12.308;2022-11-02T07:50:34;13.90;99.90
32660;DHT22;19064;47.912;12.308;2022-11-02T07:53:01;13.70;99.90
32660;DHT22;19064;47.912;12.308;2022-11-02T07:55:30;13.50;99.90
32660;DHT22;19064;47.912;12.308;2022-11-02T07:57:58;13.40;99.90
32660;DHT22;19064;47.912;12.308;2022-11-02T08:00:26;13.30;99.90
32660;DHT22;19064;47.912;12.308;2022-11-02T08:02:53;13.40;99.90
32660;DHT22;19064;47.912;12.308;2022-11-02T08:05:21;14.00;99.90
32660;DHT22;19064;47.912;12.308;2022-11-02T08:07:54;14.90;99.90
32660;DHT22;19064;47.912;12.308;2022-11-02T08:10:21;16.20;99.90
32660;DHT22;19064;47.912;12.308;2022-11-02T08:12:49;17.40;99.90
32660;DHT22;19064;47.912;12.308;2022-11-02T08:15:16;18.50;99.90
32660;DHT22;19064;47.912;12.308;2022-11-02T08:17:42;19.30;99.90
32660;DHT22;19064;47.912;12.308;2022-11-02T08:20:10;19.80;99.90
32660;DHT22;19064;47.912;12.308;2022-11-02T08:22:37;20.30;99.90
32660;DHT22;19064;47.912;12.308;2022-11-02T08:25:05;20.60;99.90
32660;DHT22;19064;47.912;12.308;2022-11-02T08:27:33;20.90;99.90
32660;DHT22;19064;47.912;12.308;2022-11-02T08:30:01;21.20;99.90
32660;DHT22;19064;47.912;12.308;2022-11-02T08:32:28;21.70;99.90
32660;DHT22;19064;47.912;12.308;2022-11-02T08:34:54;22.30;99.90
32660;DHT22;19064;47.912;12.308;2022-11-02T08:37:21;22.30;99.90
32660;DHT22;19064;47.912;12.308;2022-11-02T08:39:48;22.20;99.90
32660;DHT22;19064;47.912;12.308;2022-11-02T08:42:14;22.30;99.90
32660;DHT22;19064;47.912;12.308;2022-11-02T08:44:41;22.40;99.90
32660;DHT22;19064;47.912;12.308;2022-11-02T08:47:09;22.40;99.90
32660;DHT22;19064;47.912;12.308;2022-11-02T08:49:36;22.50;99.90
32660;DHT22;19064;47.912;12.308;2022-11-02T08:52:03;22.70;99.90
32660;DHT22;19064;47.912;12.308;2022-11-02T08:54:29;21.20;99.90
32660;DHT22;19064;47.912;12.308;2022-11-02T08:56:56;19.60;99.90
32660;DHT22;19064;47.912;12.308;2022-11-02T08:59:23;18.50;99.90
32660;DHT22;19064;47.912;12.308;2022-11-02T09:01:49;17.40;99.90
32660;DHT22;19064;47.912;12.308;2022-11-02T09:04:17;16.80;99.90
32660;DHT22;19064;47.912;12.308;2022-11-02T09:06:44;16.50;99.90
32660;DHT22;19064;47.912;12.308;2022-11-02T09:09:11;15.90;99.90
32660;DHT22;19064;47.912;12.308;2022-11-02T09:11:38;15.70;99.90
32660;DHT22;19064;47.912;12.308;2022-11-02T09:14:04;15.50;99.90
32660;DHT22;19064;47.912;12.308;2022-11-02T09:16:32;15.30;99.90
32660;DHT22;19064;47.912;12.308;2022-11-02T09:18:59;15.10;99.90
32660;DHT22;19064;47.912;12.308;2022-11-02T09:21:27;15.00;99.90
32660;DHT22;19064;47.912;12.308;2022-11-02T09:23:54;14.80;99.90
32660;DHT22;19064;47.912;12.308;2022-11-02T09:26:21;14.80;99.90
32660;DHT22;19064;47.912;12.308;2022-11-02T09:28:47;14.70;99.90
32660;DHT22;19064;47.912;12.308;2022-11-02T09:31:14;14.60;99.90
32660;DHT22;19064;47.912;12.308;2022-11-02T09:33:41;14.60;99.90
32660;DHT22;19064;47.912;12.308;2022-11-02T09:36:08;14.60;99.90
32660;DHT22;19064;47.912;12.308;2022-11-02T09:38:36;14.50;99.90
32660;DHT22;19064;47.912;12.308;2022-11-02T09:41:11;14.50;99.90
32660;DHT22;19064;47.912;12.308;2022-11-02T09:43:47;14.50;99.90
32660;DHT22;19064;47.912;12.308;2022-11-02T09:46:18;14.50;99.90
32660;DHT22;19064;47.912;12.308;2022-11-02T09:48:48;14.50;99.90
32660;DHT22;19064;47.912;12.308;2022-11-02T09:51:18;14.40;99.90
32660;DHT22;19064;47.912;12.308;2022-11-02T09:53:55;14.40;99.90
32660;DHT22;19064;47.912;12.308;2022-11-02T09:56:25;14.40;99.90
32660;DHT22;19064;47.912;12.308;2022-11-02T09:58:57;14.30;99.90
32660;DHT22;19064;47.912;12.308;2022-11-02T10:07:34;14.20;99.90
32660;DHT22;19064;47.912;12.308;2022-11-02T10:10:12;14.20;99.90
32660;DHT22;19064;47.912;12.308;2022-11-02T10:12:43;14.30;99.90
32660;DHT22;19064;47.912;12.308;2022-11-02T10:15:16;14.30;99.90
32660;DHT22;19064;47.912;12.308;2022-11-02T10:17:46;14.40;99.90
32660;DHT22;19064;47.912;12.308;2022-11-02T10:20:26;14.40;99.90
32660;DHT22;19064;47.912;12.308;2022-11-02T10:22:59;14.40;99.90
32660;DHT22;19064;47.912;12.308;2022-11-02T10:25:32;14.40;99.90
32660;DHT22;19064;47.912;12.308;2022-11-02T10:28:08;14.40;99.90
32660;DHT22;19064;47.912;12.308;2022-11-02T10:30:40;14.40;99.90
32660;DHT22;19064;47.912;12.308;2022-11-02T10:33:12;14.50;99.90
32660;DHT22;19064;47.912;12.308;2022-11-02T10:35:45;14.50;99.90
32660;DHT22;19064;47.912;12.308;2022-11-02T10:38:23;14.60;99.90
32660;DHT22;19064;47.912;12.308;2022-11-02T10:41:14;14.70;99.90
32660;DHT22;19064;47.912;12.308;2022-11-02T10:43:58;14.70;99.90
32660;DHT22;19064;47.912;12.308;2022-11-02T10:49:48;14.60;99.90
32660;DHT22;19064;47.912;12.308;2022-11-02T10:52:19;14.60;99.90
32660;DHT22;19064;47.912;12.308;2022-11-02T10:54:49;14.60;99.90
32660;DHT22;19064;47.912;12.308;2022-11-02T10:57:24;14.70;99.90
32660;DHT22;19064;47.912;12.308;2022-11-02T11:00:27;14.70;99.90
32660;DHT22;19064;47.912;12.308;2022-11-02T11:03:07;14.70;99.90
32660;DHT22;19064;47.912;12.308;2022-11-02T11:05:53;14.60;99.90
32660;DHT22;19064;47.912;12.308;2022-11-02T11:08:32;14.60;99.90
32660;DHT22;19064;47.912;12.308;2022-11-02T11:11:14;14.60;99.90
32660;DHT22;19064;47.912;12.308;2022-11-02T11:13:53;14.70;99.90
32660;DHT22;19064;47.912;12.308;2022-11-02T11:16:34;14.70;99.90
32660;DHT22;19064;47.912;12.308;2022-11-02T11:19:04;14.80;99.90
32660;DHT22;19064;47.912;12.308;2022-11-02T11:21:39;14.70;99.90
32660;DHT22;19064;47.912;12.308;2022-11-02T11:24:28;14.80;99.90
32660;DHT22;19064;47.912;12.308;2022-11-02T11:27:16;14.80;99.90
32660;DHT22;19064;47.912;12.308;2022-11-02T11:29:49;15.00;99.90
32660;DHT22;19064;47.912;12.308;2022-11-02T11:32:20;15.00;99.90
32660;DHT22;19064;47.912;12.308;2022-11-02T11:35:00;15.00;99.90
32660;DHT22;19064;47.912;12.308;2022-11-02T11:37:29;15.10;99.90
32660;DHT22;19064;47.912;12.308;2022-11-02T11:39:59;15.30;99.90
32660;DHT22;19064;47.912;12.308;2022-11-02T11:42:28;15.30;99.90
32660;DHT22;19064;47.912;12.308;2022-11-02T11:45:00;15.30;99.90
32660;DHT22;19064;47.912;12.308;2022-11-02T11:47:30;15.30;99.90
32660;DHT22;19064;47.912;12.308;2022-11-02T11:50:00;15.40;99.90
32660;DHT22;19064;47.912;12.308;2022-11-02T11:52:30;15.40;99.90
32660;DHT22;19064;47.912;12.308;2022-11-02T11:54:58;15.40;99.90
32660;DHT22;19064;47.912;12.308;2022-11-02T11:57:28;15.40;99.90
32660;DHT22;19064;47.912;12.308;2022-11-02T11:59:58;15.50;99.90
32660;DHT22;19064;47.912;12.308;2022-11-02T12:02:27;15.50;99.90
32660;DHT22;19064;47.912;12.308;2022-11-02T12:05:09;15.50;99.90
32660;DHT22;19064;47.912;12.308;2022-11-02T12:08:17;15.50;99.90
32660;DHT22;19064;47.912;12.308;2022-11-02T12:10:58;15.60;99.90
32660;DHT22;19064;47.912;12.308;2022-11-02T12:13:33;15.60;99.90
32660;DHT22;19064;47.912;12.308;2022-11-02T12:16:12;15.60;99.90
32660;DHT22;19064;47.912;12.308;2022-11-02T12:18:52;15.60;99.90
32660;DHT22;19064;47.912;12.308;2022-11-02T12:21:33;15.50;99.90
32660;DHT22;19064;47.912;12.308;2022-11-02T12:24:18;15.50;99.90
32660;DHT22;19064;47.912;12.308;2022-11-02T12:27:01;15.40;99.90
32660;DHT22;19064;47.912;12.308;2022-11-02T12:29:54;15.40;99.90
32660;DHT22;19064;47.912;12.308;2022-11-02T12:32:47;15.30;99.90
32660;DHT22;19064;47.912;12.308;2022-11-02T12:35:31;15.20;99.90
32660;DHT22;19064;47.912;12.308;2022-11-02T12:38:17;15.20;99.90
32660;DHT22;19064;47.912;12.308;2022-11-02T12:40:53;15.20;99.90
32660;DHT22;19064;47.912;12.308;2022-11-02T12:43:39;15.20;99.90
32660;DHT22;19064;47.912;12.308;2022-11-02T12:46:15;15.20;99.90
32660;DHT22;19064;47.912;12.308;2022-11-02T12:51:43;15.20;99.90
32660;DHT22;19064;47.912;12.308;2022-11-02T12:54:14;15.20;99.90
32660;DHT22;19064;47.912;12.308;2022-11-02T12:56:46;15.20;99.90
32660;DHT22;19064;47.912;12.308;2022-11-02T12:59:18;15.30;99.90
32660;DHT22;19064;47.912;12.308;2022-11-02T13:01:50;15.30;99.90
32660;DHT22;19064;47.912;12.308;2022-11-02T13:04:24;15.30;99.90
32660;DHT22;19064;47.912;12.308;2022-11-02T13:06:54;15.20;99.90
32660;DHT22;19064;47.912;12.308;2022-11-02T13:09:26;15.20;99.90
32660;DHT22;19064;47.912;12.308;2022-11-02T13:11:59;15.20;99.90
32660;DHT22;19064;47.912;12.308;2022-11-02T13:14:31;15.20;99.90
32660;DHT22;19064;47.912;12.308;2022-11-02T13:17:02;15.20;99.90
32660;DHT22;19064;47.912;12.308;2022-11-02T13:19:36;15.20;99.90
32660;DHT22;19064;47.912;12.308;2022-11-02T13:22:08;15.20;99.90
32660;DHT22;19064;47.912;12.308;2022-11-02T13:24:39;15.10;99.90
32660;DHT22;19064;47.912;12.308;2022-11-02T13:27:24;15.10;99.90
32660;DHT22;19064;47.912;12.308;2022-11-02T13:29:54;15.10;99.90
32660;DHT22;19064;47.912;12.308;2022-11-02T13:32:26;15.00;99.90
32660;DHT22;19064;47.912;12.308;2022-11-02T13:34:55;15.00;99.90
32660;DHT22;19064;47.912;12.308;2022-11-02T13:37:27;15.00;99.90
32660;DHT22;19064;47.912;12.308;2022-11-02T13:39:57;15.00;99.90
32660;DHT22;19064;47.912;12.308;2022-11-02T13:45:41;14.90;99.90
32660;DHT22;19064;47.912;12.308;2022-11-02T13:51:06;14.80;99.90
32660;DHT22;19064;47.912;12.308;2022-11-02T13:53:36;14.80;99.90
32660;DHT22;19064;47.912;12.308;2022-11-02T13:56:07;14.70;99.90
32660;DHT22;19064;47.912;12.308;2022-11-02T13:58:36;14.70;99.90
32660;DHT22;19064;47.912;12.308;2022-11-02T14:01:05;14.60;99.90
32660;DHT22;19064;47.912;12.308;2022-11-02T14:03:45;14.60;99.90
32660;DHT22;19064;47.912;12.308;2022-11-02T14:06:16;14.60;99.90
32660;DHT22;19064;47.912;12.308;2022-11-02T14:08:47;14.60;99.90
32660;DHT22;19064;47.912;12.308;2022-11-02T14:11:34;14.50;99.90
32660;DHT22;19064;47.912;12.308;2022-11-02T14:14:28;14.40;99.90
32660;DHT22;19064;47.912;12.308;2022-11-02T14:16:57;14.40;99.90
32660;DHT22;19064;47.912;12.308;2022-11-02T14:19:49;14.30;99.90
32660;DHT22;19064;47.912;12.308;2022-11-02T14:22:17;14.30;99.90
32660;DHT22;19064;47.912;12.308;2022-11-02T14:27:53;14.30;99.90
32660;DHT22;19064;47.912;12.308;2022-11-02T14:30:42;14.40;99.90
32660;DHT22;19064;47.912;12.308;2022-11-02T14:33:25;14.50;99.90
32660;DHT22;19064;47.912;12.308;2022-11-02T14:35:59;14.50;99.90
32660;DHT22;19064;47.912;12.308;2022-11-02T14:38:47;14.50;99.90
32660;DHT22;19064;47.912;12.308;2022-11-02T14:41:35;14.50;99.90
32660;DHT22;19064;47.912;12.308;2022-11-02T14:47:07;14.40;99.90
32660;DHT22;19064;47.912;12.308;2022-11-02T14:49:37;14.30;99.90
32660;DHT22;19064;47.912;12.308;2022-11-02T14:52:21;14.30;99.90
32660;DHT22;19064;47.912;12.308;2022-11-02T14:54:53;14.30;99.90
32660;DHT22;19064;47.912;12.308;2022-11-02T14:57:24;14.10;99.90
32660;DHT22;19064;47.912;12.308;2022-11-02T14:59:54;14.00;99.90
32660;DHT22;19064;47.912;12.308;2022-11-02T15:02:29;13.90;99.90
32660;DHT22;19064;47.912;12.308;2022-11-02T15:04:59;14.00;99.90
32660;DHT22;19064;47.912;12.308;2022-11-02T15:07:31;14.00;99.90
32660;DHT22;19064;47.912;12.308;2022-11-02T15:10:02;14.00;99.90
32660;DHT22;19064;47.912;12.308;2022-11-02T15:12:37;14.00;99.90
32660;DHT22;19064;47.912;12.308;2022-11-02T15:15:28;14.00;99.90
32660;DHT22;19064;47.912;12.308;2022-11-02T15:18:18;13.90;99.90
32660;DHT22;19064;47.912;12.308;2022-11-02T15:20:46;13.70;99.90
32660;DHT22;19064;47.912;12.308;2022-11-02T15:23:36;13.60;99.90
32660;DHT22;19064;47.912;12.308;2022-11-02T15:26:13;13.50;99.90
32660;DHT22;19064;47.912;12.308;2022-11-02T15:28:43;13.40;99.90
32660;DHT22;19064;47.912;12.308;2022-11-02T15:31:14;13.30;99.90
32660;DHT22;19064;47.912;12.308;2022-11-02T15:33:45;13.10;99.90
32660;DHT22;19064;47.912;12.308;2022-11-02T15:36:16;13.00;99.90
32660;DHT22;19064;47.912;12.308;2022-11-02T15:38:46;13.00;99.90
32660;DHT22;19064;47.912;12.308;2022-11-02T15:41:20;13.10;99.90
32660;DHT22;19064;47.912;12.308;2022-11-02T15:44:09;13.10;99.90
32660;DHT22;19064;47.912;12.308;2022-11-02T15:46:49;13.00;99.90
32660;DHT22;19064;47.912;12.308;2022-11-02T15:49:35;13.00;99.90
32660;DHT22;19064;47.912;12.308;2022-11-02T15:52:12;13.00;99.90
32660;DHT22;19064;47.912;12.308;2022-11-02T15:54:50;12.90;99.90
32660;DHT22;19064;47.912;12.308;2022-11-02T15:57:30;12.80;99.90
32660;DHT22;19064;47.912;12.308;2022-11-02T16:00:09;12.80;99.90
32660;DHT22;19064;47.912;12.308;2022-11-02T16:02:38;12.60;99.90
32660;DHT22;19064;47.912;12.308;2022-11-02T16:05:06;12.50;99.90
32660;DHT22;19064;47.912;12.308;2022-11-02T16:07:34;12.30;99.90